Date,TemperatureHighF,TemperatureAvgF,TemperatureLowF,DewpointHighF,DewpointAvgF,DewpointLowF,HumidityHigh,HumidityAvg,HumidityLow,PressureMaxIn,PressureMinIn,WindSpeedMaxMPH,WindSpeedAvgMPH,GustSpeedMaxMPH,PrecipitationSumIn
2013-5-1,66.0,52.4,38.0,44.0,33.9,23.0,83,54,22,30.45,30.29,9,1,17,0.01
2013-5-2,73.0,56.7,40.0,46.0,40.5,37.0,95,60,30,30.44,30.29,6,1,14,0.00
2013-5-3,63.0,54.9,46.0,44.0,37.1,29.0,83,54,29,30.41,30.31,8,2,18,0.00
2013-5-4,69.0,53.6,41.0,45.0,40.3,36.0,95,66,31,30.33,30.18,8,1,18,0.00
2013-5-5,63.0,49.7,39.0,43.0,38.8,33.0,95,70,33,30.25,30.16,6,1,14,0.00
2013-5-6,68.0,53.2,39.0,54.0,46.1,37.0,95,78,55,30.22,30.11,5,1,13,0.00
2013-5-7,70.0,59.1,46.0,58.0,51.0,45.0,96,76,53,30.14,30.06,8,1,16,0.00
2013-5-8,65.0,59.6,53.0,61.0,57.2,51.0,97,92,82,30.07,29.93,5,1,15,0.95
2013-5-9,66.0,56.9,51.0,57.0,53.4,50.0,97,89,66,29.98,29.88,4,0,10,0.06
2013-5-10,78.0,64.4,52.0,59.0,52.9,-99.9,97,72,38,29.98,29.88,5,1,12,0.01
2013-5-11,69.0,63.2,59.0,63.0,60.6,58.0,95,91,77,29.90,29.69,6,1,14,0.66
2013-5-12,63.0,56.0,46.0,57.0,38.5,-99.9,95,57,27,29.91,29.66,12,3,23,0.02
2013-5-13,51.0,45.1,39.0,33.0,28.7,24.0,79,54,35,30.07,29.91,7,2,18,0.00
2013-5-14,58.0,46.3,34.0,33.0,27.8,19.0,88,54,22,30.10,29.99,7,2,16,0.00
2013-5-15,71.0,55.9,41.0,58.0,45.2,32.0,89,68,56,30.03,29.65,10,1,18,0.02
2013-5-16,59.0,57.3,56.0,56.0,54.9,54.0,94,92,90,29.72,29.71,0,0,1,0.02
2013-5-21,83.0,76.2,70.0,70.0,68.4,66.0,88,77,65,29.86,29.84,6,1,13,0.00
2013-5-22,82.0,71.7,62.0,72.0,67.3,61.0,97,87,68,29.91,29.82,4,1,13,0.00
2013-5-23,75.0,68.4,62.0,69.0,66.1,60.0,97,92,77,29.88,29.73,6,2,19,2.42
2013-5-24,66.0,51.0,42.0,65.0,49.0,40.0,97,93,85,29.94,29.68,10,4,22,2.53
2013-5-25,53.0,46.5,41.0,42.0,39.3,35.0,94,77,55,29.98,29.89,11,5,24,0.27
2013-5-26,64.0,53.3,44.0,40.0,36.1,31.0,78,55,31,30.18,29.95,10,4,29,0.02
2013-5-27,73.0,57.6,42.0,46.0,38.6,35.0,78,53,26,30.22,30.10,6,1,13,0.00
2013-5-28,62.0,54.5,48.0,54.0,49.9,43.0,97,85,60,30.19,30.10,6,0,11,0.54
2013-5-29,83.0,68.3,55.0,69.0,62.1,54.0,98,83,60,30.10,30.00,6,1,15,0.05
2013-5-30,90.0,78.0,66.0,66.0,64.6,60.0,93,66,39,30.13,30.06,5,1,12,0.01
2013-5-31,90.0,78.1,68.0,72.0,65.1,60.0,90,67,40,30.12,30.00,6,1,13,0.00